Time;durP1;ratioP1;P1;durP2;ratioP2;P2;SDS_P1;SDS_P2;PMS_P1;PMS_P2;Temp;Humidity;BMP_temperature;BMP_pressure;BME280_temperature;BME280_humidity;BME280_pressure;Samples;Min_cycle;Max_cycle;Signal;HPM_P1;HPM_P2
2021/09/24 00:00:24;;;;;;;;;14.50;14.00;;;;;14.61;68.79;100875.78;5040085;28;45244;-91
2021/09/24 00:02:50;;;;;;;;;13.00;12.50;;;;;14.62;69.17;100877.50;5040025;28;45215;-90
2021/09/24 00:05:15;;;;;;;;;14.25;12.00;;;;;14.71;68.81;100882.25;5039912;28;47024;-91
2021/09/24 00:07:41;;;;;;;;;14.75;13.75;;;;;14.68;69.37;100874.44;5040167;28;45200;-92
2021/09/24 00:10:08;;;;;;;;;14.50;13.00;;;;;14.60;69.17;100858.00;5039894;28;45101;-91
2021/09/24 00:12:34;;;;;;;;;16.50;16.25;;;;;14.76;69.44;100868.56;5056816;28;45160;-90
2021/09/24 00:15:00;;;;;;;;;19.00;14.00;;;;;14.89;69.55;100890.84;5039757;28;47160;-93
2021/09/24 00:17:25;;;;;;;;;16.00;15.25;;;;;14.93;69.60;100881.63;5039752;28;46138;-91
2021/09/24 00:19:51;;;;;;;;;16.00;14.25;;;;;14.97;69.81;100879.63;5040181;28;45307;-92
2021/09/24 00:22:16;;;;;;;;;19.00;16.50;;;;;14.94;69.60;100855.75;5039806;28;45213;-90
2021/09/24 00:24:44;;;;;;;;;18.50;16.00;;;;;15.04;69.45;100867.53;5039945;28;48156;-91
2021/09/24 00:27:10;;;;;;;;;15.25;15.25;;;;;15.13;69.88;100866.88;5039914;28;45203;-91
2021/09/24 00:29:35;;;;;;;;;16.25;13.75;;;;;15.14;69.81;100857.88;5039479;28;45313;-91
2021/09/24 00:32:00;;;;;;;;;16.00;14.00;;;;;15.14;69.85;100844.47;5039684;28;45278;-90
2021/09/24 00:34:26;;;;;;;;;16.00;16.00;;;;;15.26;69.70;100860.66;5039476;28;47602;-91
2021/09/24 00:36:51;;;;;;;;;15.00;13.75;;;;;15.30;69.49;100859.50;5039663;28;45082;-92
2021/09/24 00:39:17;;;;;;;;;18.00;16.75;;;;;15.23;69.58;100845.66;5039435;28;45279;-90
2021/09/24 00:41:42;;;;;;;;;17.50;15.00;;;;;15.28;69.65;100846.19;5039622;28;45160;-91
2021/09/24 00:44:08;;;;;;;;;17.75;16.25;;;;;15.36;69.82;100848.31;5039222;28;48252;-90
2021/09/24 00:46:33;;;;;;;;;15.75;13.00;;;;;15.36;69.73;100853.69;5039410;28;45236;-90
2021/09/24 00:48:59;;;;;;;;;16.25;15.25;;;;;15.32;70.21;100841.47;5039208;28;45251;-90
2021/09/24 00:51:24;;;;;;;;;17.00;14.50;;;;;15.42;69.77;100850.59;5039982;28;45216;-90
2021/09/24 00:53:50;;;;;;;;;16.00;16.00;;;;;15.45;69.80;100844.13;5038980;28;47053;-91
2021/09/24 00:56:16;;;;;;;;;16.50;16.50;;;;;15.43;69.88;100836.22;5039033;28;45215;-91
2021/09/24 00:58:42;;;;;;;;;21.25;17.00;;;;;15.51;70.23;100835.69;5039406;28;45255;-91
2021/09/24 01:01:07;;;;;;;;;19.75;17.50;;;;;15.52;69.88;100835.56;5043468;28;45049;-91
2021/09/24 01:03:32;;;;;;;;;16.25;15.75;;;;;15.54;69.97;100819.38;5045965;28;48025;-91
2021/09/24 01:05:57;;;;;;;;;17.75;17.50;;;;;15.59;69.58;100822.59;5046141;28;45148;-91
2021/09/24 01:08:23;;;;;;;;;18.25;15.25;;;;;15.59;70.18;100830.63;5045978;28;45175;-90
2021/09/24 01:10:49;;;;;;;;;18.75;16.75;;;;;15.64;69.99;100824.94;5046010;28;45199;-91
2021/09/24 01:13:14;;;;;;;;;18.75;14.00;;;;;15.68;69.54;100818.38;5045367;28;47041;-91
2021/09/24 01:15:40;;;;;;;;;18.25;16.75;;;;;15.71;69.89;100823.50;5045704;28;46031;-90
2021/09/24 01:18:05;;;;;;;;;22.25;18.75;;;;;15.71;69.98;100812.78;5045543;28;45168;-90
2021/09/24 01:20:31;;;;;;;;;20.00;15.00;;;;;15.75;69.86;100808.91;5045681;28;45427;-90
2021/09/24 01:22:56;;;;;;;;;18.50;16.75;;;;;15.78;70.57;100805.16;5045055;28;47081;-91
2021/09/24 01:25:23;;;;;;;;;21.50;19.00;;;;;15.73;70.30;100794.75;5045356;28;45449;-91
2021/09/24 01:27:50;;;;;;;;;20.75;14.00;;;;;15.84;70.43;100807.41;5045755;28;45221;-91
2021/09/24 01:30:16;;;;;;;;;19.50;16.00;;;;;15.84;70.02;100813.63;5045881;28;45300;-90
2021/09/24 01:32:43;;;;;;;;;15.75;15.75;;;;;15.86;70.38;100814.38;5045300;28;47064;-90
2021/09/24 01:35:10;;;;;;;;;15.00;14.00;;;;;15.87;70.33;100813.41;5045494;28;45567;-91
2021/09/24 01:37:35;;;;;;;;;19.50;13.75;;;;;15.87;70.31;100815.22;5045596;28;45244;-90
2021/09/24 01:40:01;;;;;;;;;16.50;15.00;;;;;15.78;70.51;100800.66;5045428;28;45409;-91
2021/09/24 01:42:26;;;;;;;;;19.75;14.00;;;;;15.90;70.69;100811.47;5045039;28;47591;-90
2021/09/24 01:44:52;;;;;;;;;15.25;10.75;;;;;15.86;70.50;100800.09;5045653;28;45374;-91
2021/09/24 01:47:17;;;;;;;;;12.75;11.25;;;;;15.76;70.59;100782.97;5045337;28;45256;-92
2021/09/24 01:49:43;;;;;;;;;14.25;13.00;;;;;15.93;70.74;100804.03;5046728;28;45329;-91
2021/09/24 01:52:08;;;;;;;;;15.50;13.00;;;;;15.95;70.07;100802.13;5052623;28;47056;-90
2021/09/24 01:54:33;;;;;;;;;17.25;12.75;;;;;15.82;70.53;100785.25;5045683;28;45787;-92
2021/09/24 01:56:59;;;;;;;;;17.00;15.75;;;;;16.01;70.68;100808.84;5045313;28;45580;-91
2021/09/24 01:59:25;;;;;;;;;13.75;13.00;;;;;16.03;70.40;100804.22;5045244;28;45264;-93
2021/09/24 02:01:50;;;;;;;;;17.25;14.00;;;;;15.96;70.69;100797.59;5045211;28;48498;-92
2021/09/24 02:04:17;;;;;;;;;17.25;13.75;;;;;15.98;70.57;100799.22;5045120;28;45266;-91
2021/09/24 02:06:43;;;;;;;;;13.50;12.50;;;;;16.01;70.63;100812.38;5045141;28;45133;-91
2021/09/24 02:09:08;;;;;;;;;16.25;12.25;;;;;16.03;70.86;100812.25;5044860;28;45350;-91
2021/09/24 02:11:33;;;;;;;;;14.00;11.50;;;;;16.00;70.52;100802.66;5043612;28;47292;-91
2021/09/24 02:13:59;;;;;;;;;19.00;14.00;;;;;16.02;70.68;100806.06;5041368;28;45561;-91
2021/09/24 02:16:24;;;;;;;;;15.50;10.75;;;;;16.01;70.87;100803.50;5042015;28;45258;-92
2021/09/24 02:18:49;;;;;;;;;15.50;13.75;;;;;16.00;70.72;100805.31;5041828;28;45271;-92
2021/09/24 02:21:15;;;;;;;;;16.00;13.00;;;;;16.07;71.10;100807.53;5041771;28;47333;-90
2021/09/24 02:23:40;;;;;;;;;16.25;13.50;;;;;16.06;71.10;100809.34;5042035;28;45260;-91
2021/09/24 02:26:06;;;;;;;;;18.25;13.00;;;;;16.08;70.94;100798.53;5041875;28;45227;-90
2021/09/24 02:28:32;;;;;;;;;12.00;10.00;;;;;16.12;70.69;100805.34;5042080;28;45216;-92
2021/09/24 02:30:58;;;;;;;;;18.25;12.00;;;;;16.07;71.06;100788.78;5041565;28;47579;-90
2021/09/24 02:33:23;;;;;;;;;15.00;12.00;;;;;16.18;70.73;100802.22;5041584;28;45235;-90
2021/09/24 02:35:48;;;;;;;;;11.75;11.75;;;;;16.06;70.66;100774.47;5041486;28;45204;-91
2021/09/24 02:38:14;;;;;;;;;15.50;14.50;;;;;16.14;70.88;100784.66;5041700;28;45385;-91
2021/09/24 02:40:39;;;;;;;;;12.25;12.25;;;;;16.23;70.72;100794.69;5041341;28;47421;-90
2021/09/24 02:43:05;;;;;;;;;14.75;13.25;;;;;16.20;70.42;100786.88;5040950;28;45893;-90
2021/09/24 02:45:30;;;;;;;;;17.00;13.00;;;;;16.20;70.49;100787.75;5041388;28;45171;-90
2021/09/24 02:47:56;;;;;;;;;17.00;13.00;;;;;16.21;70.92;100794.78;5041202;28;45245;-90
2021/09/24 02:50:21;;;;;;;;;13.75;12.75;;;;;16.26;71.03;100799.84;5040900;28;47890;-90
2021/09/24 02:52:46;;;;;;;;;16.50;12.50;;;;;16.27;70.75;100795.31;5040885;28;45246;-92
2021/09/24 02:55:14;;;;;;;;;15.25;12.75;;;;;16.26;70.38;100796.28;5040995;28;45156;-91
2021/09/24 02:57:39;;;;;;;;;12.50;12.50;;;;;16.24;70.84;100784.81;5041057;28;45232;-90
2021/09/24 03:00:06;;;;;;;;;16.50;11.75;;;;;16.27;70.86;100784.59;5050935;28;48384;-92
2021/09/24 03:02:32;;;;;;;;;10.25;10.00;;;;;16.22;70.59;100785.78;5078099;28;45255;-91
2021/09/24 03:04:57;;;;;;;;;9.25;7.50;;;;;16.13;70.87;100773.09;5058748;28;45276;-90
2021/09/24 03:07:23;;;;;;;;;11.50;8.25;;;;;16.21;70.85;100791.28;5071723;28;45139;-92
2021/09/24 03:09:48;;;;;;;;;12.25;9.25;;;;;16.21;70.52;100792.13;5061092;28;47784;-91
2021/09/24 03:12:13;;;;;;;;;13.50;11.25;;;;;16.19;70.81;100772.59;5077804;28;45250;-92
2021/09/24 03:14:39;;;;;;;;;15.50;8.50;;;;;16.26;71.15;100789.09;5077931;28;45207;-90
2021/09/24 03:17:05;;;;;;;;;12.75;9.75;;;;;16.27;70.52;100784.59;5077620;28;45229;-90
2021/09/24 03:19:30;;;;;;;;;13.25;10.25;;;;;16.23;70.87;100773.22;5077603;28;47179;-91
2021/09/24 03:21:56;;;;;;;;;4.25;4.00;;;;;16.31;70.96;100792.28;5077350;28;45131;-90
2021/09/24 03:24:21;;;;;;;;;10.25;7.75;;;;;16.22;70.78;100764.31;5078154;28;45203;-91
2021/09/24 03:26:47;;;;;;;;;9.00;9.00;;;;;16.33;70.64;100781.44;5078000;28;45317;-91
2021/09/24 03:29:13;;;;;;;;;9.00;8.75;;;;;16.30;70.64;100778.97;5077082;28;47417;-90
2021/09/24 03:31:40;;;;;;;;;10.50;8.75;;;;;16.32;70.84;100783.25;5077649;28;45848;-90
2021/09/24 03:34:07;;;;;;;;;11.50;10.50;;;;;16.32;70.90;100779.72;5060566;28;45145;-90
2021/09/24 03:36:34;;;;;;;;;8.25;8.25;;;;;16.30;71.03;100771.78;5061026;28;45215;-90
2021/09/24 03:39:00;;;;;;;;;12.25;9.50;;;;;16.33;70.69;100778.75;5060600;28;47166;-90
2021/09/24 03:41:25;;;;;;;;;11.25;9.00;;;;;16.32;70.76;100772.53;5077396;28;45768;-90
2021/09/24 03:43:50;;;;;;;;;11.25;7.25;;;;;16.32;70.79;100775.22;5076952;28;45207;-89
2021/09/24 03:46:16;;;;;;;;;15.50;11.25;;;;;16.30;70.66;100769.09;5060394;28;45185;-91
2021/09/24 03:48:41;;;;;;;;;15.50;12.00;;;;;16.18;70.94;100746.75;5077640;28;46929;-90
2021/09/24 03:51:07;;;;;;;;;10.75;7.75;;;;;16.30;71.19;100768.25;5060567;28;46012;-90
2021/09/24 03:53:32;;;;;;;;;8.25;8.25;;;;;16.27;70.93;100769.34;5078878;28;45253;-92
2021/09/24 03:55:58;;;;;;;;;12.25;8.25;;;;;16.30;71.56;100770.94;5060789;28;45365;-91
2021/09/24 03:58:24;;;;;;;;;10.50;9.00;;;;;16.19;71.01;100756.50;5077633;28;47835;-90
2021/09/24 04:00:51;;;;;;;;;11.00;9.75;;;;;16.18;71.29;100751.25;5076845;28;45553;-90
2021/09/24 04:03:17;;;;;;;;;12.00;9.25;;;;;16.31;71.32;100768.13;5076941;28;45221;-89
2021/09/24 04:05:42;;;;;;;;;10.25;9.00;;;;;16.26;71.48;100756.91;5077428;28;45286;-90
2021/09/24 04:08:07;;;;;;;;;10.25;8.75;;;;;16.30;71.38;100753.00;5076813;28;47261;-89
2021/09/24 04:10:33;;;;;;;;;8.25;8.25;;;;;16.23;71.55;100741.03;5076776;28;45155;-90
2021/09/24 04:12:58;;;;;;;;;11.25;9.75;;;;;16.33;71.28;100749.22;5075026;28;45355;-91
2021/09/24 04:15:24;;;;;;;;;11.00;8.25;;;;;16.30;71.52;100749.47;5059711;28;45278;-90
2021/09/24 04:17:49;;;;;;;;;8.00;7.50;;;;;16.34;71.15;100746.41;5056745;28;48166;-90
2021/09/24 04:20:14;;;;;;;;;8.25;7.25;;;;;16.48;71.07;100768.69;5056164;28;45246;-91
2021/09/24 04:22:40;;;;;;;;;9.25;8.00;;;;;16.45;71.17;100761.72;5056664;28;45218;-90
2021/09/24 04:25:06;;;;;;;;;9.75;8.25;;;;;16.52;71.22;100765.63;5056509;28;45216;-90
2021/09/24 04:27:32;;;;;;;;;9.50;9.25;;;;;16.53;71.01;100759.31;5056342;28;47315;-90
2021/09/24 04:29:57;;;;;;;;;10.75;9.00;;;;;16.49;71.15;100756.94;5039663;28;45894;-89
2021/09/24 04:32:23;;;;;;;;;10.00;8.00;;;;;16.35;71.34;100732.03;5056691;28;45121;-90
2021/09/24 04:34:49;;;;;;;;;12.25;10.25;;;;;16.40;70.75;100739.72;5061387;28;45215;-91
2021/09/24 04:37:14;;;;;;;;;10.50;9.25;;;;;16.42;71.06;100743.16;5061687;28;48474;-90
2021/09/24 04:39:40;;;;;;;;;11.75;8.00;;;;;16.46;70.80;100750.00;5056429;28;45213;-91
2021/09/24 04:42:05;;;;;;;;;10.25;8.00;;;;;16.55;70.88;100764.56;5053818;28;45338;-92
2021/09/24 04:44:31;;;;;;;;;11.00;11.00;;;;;16.51;70.84;100766.59;5019829;28;45430;-90
2021/09/24 04:46:56;;;;;;;;;13.75;10.25;;;;;16.54;70.63;100760.16;5019465;28;47288;-90
2021/09/24 04:49:22;;;;;;;;;14.75;12.50;;;;;16.54;70.68;100765.50;5019376;28;45212;-91
2021/09/24 04:51:47;;;;;;;;;13.00;13.00;;;;;16.51;70.68;100766.59;5019595;28;45129;-90
2021/09/24 04:54:12;;;;;;;;;14.25;10.75;;;;;16.47;70.78;100767.81;5019528;28;45253;-91
2021/09/24 04:56:38;;;;;;;;;12.75;8.50;;;;;16.43;70.87;100774.38;5019408;28;46826;-90
2021/09/24 04:59:03;;;;;;;;;16.25;14.00;;;;;16.40;70.93;100766.56;5035991;28;45749;-90
2021/09/24 05:01:29;;;;;;;;;12.75;12.25;;;;;16.35;71.14;100763.41;5019426;28;45105;-90
2021/09/24 05:03:54;;;;;;;;;14.00;11.75;;;;;16.38;71.23;100766.69;5019442;28;45407;-90
2021/09/24 05:06:19;;;;;;;;;11.25;11.00;;;;;16.28;70.59;100744.22;5019492;28;47213;-93
2021/09/24 05:08:45;;;;;;;;;15.25;12.00;;;;;16.32;71.20;100761.81;5022927;28;45716;-91
2021/09/24 05:11:10;;;;;;;;;15.00;13.50;;;;;16.26;70.97;100743.50;5026753;28;45282;-92
2021/09/24 05:13:35;;;;;;;;;14.75;12.50;;;;;16.37;71.33;100765.00;5042614;28;45256;-90
2021/09/24 05:16:01;;;;;;;;;15.00;14.00;;;;;16.39;70.91;100757.66;5055713;28;47231;-91
2021/09/24 05:18:26;;;;;;;;;14.00;12.00;;;;;16.33;71.18;100747.41;5044329;28;45288;-91
2021/09/24 05:20:51;;;;;;;;;13.25;12.25;;;;;16.37;70.95;100759.63;5039427;28;45231;-91
2021/09/24 05:23:17;;;;;;;;;14.00;13.00;;;;;16.43;71.04;100763.63;5055854;28;45207;-91
2021/09/24 05:25:42;;;;;;;;;14.50;13.00;;;;;16.34;71.02;100745.59;5039325;28;47797;-93
2021/09/24 05:28:07;;;;;;;;;16.00;13.50;;;;;16.46;70.84;100762.56;5038494;28;45221;-90
2021/09/24 05:30:33;;;;;;;;;15.75;11.25;;;;;16.42;71.13;100755.72;5055937;28;45165;-91
2021/09/24 05:32:58;;;;;;;;;14.50;13.50;;;;;16.31;71.24;100748.50;5039166;28;45097;-91
2021/09/24 05:35:24;;;;;;;;;13.50;10.50;;;;;16.43;70.84;100768.16;5039248;28;47510;-91
2021/09/24 05:37:49;;;;;;;;;12.00;11.25;;;;;16.45;71.17;100760.88;5039106;28;45141;-91
2021/09/24 05:40:15;;;;;;;;;11.25;10.50;;;;;16.45;70.90;100759.03;5039167;28;45272;-91
2021/09/24 05:42:41;;;;;;;;;22.75;15.75;;;;;16.37;70.94;100754.25;5062538;28;45101;-92
2021/09/24 05:45:11;;;;;;;;;12.75;12.25;;;;;16.45;71.17;100756.34;5075618;28;46977;-91
2021/09/24 05:47:38;;;;;;;;;10.50;10.50;;;;;16.44;71.20;100759.16;5059860;28;45148;-91
2021/09/24 05:50:11;;;;;;;;;12.00;11.00;;;;;16.41;71.11;100754.03;5062408;28;45183;-91
2021/09/24 05:52:37;;;;;;;;;15.00;12.75;;;;;16.37;70.98;100750.69;5062514;28;45132;-90
2021/09/24 05:55:03;;;;;;;;;17.75;16.25;;;;;16.43;70.93;100757.44;5049203;28;48217;-89
2021/09/24 05:57:28;;;;;;;;;15.75;14.00;;;;;16.42;71.10;100751.22;5051108;28;45765;-89
2021/09/24 05:59:53;;;;;;;;;14.50;12.75;;;;;16.35;71.07;100742.78;5064969;28;45560;-88
2021/09/24 06:02:19;;;;;;;;;16.50;13.50;;;;;16.45;70.86;100759.03;5057344;28;45299;-90
2021/09/24 06:04:44;;;;;;;;;13.75;13.75;;;;;16.45;70.62;100766.25;5057818;28;47250;-89
2021/09/24 06:07:09;;;;;;;;;14.75;12.75;;;;;16.36;70.68;100747.19;5057285;28;45324;-91
2021/09/24 06:09:35;;;;;;;;;14.75;13.50;;;;;16.44;71.04;100762.69;5059205;28;45313;-90
2021/09/24 06:12:00;;;;;;;;;15.50;15.25;;;;;16.46;70.86;100766.13;5057250;28;45311;-88
2021/09/24 06:14:25;;;;;;;;;17.75;14.75;;;;;16.36;70.55;100749.00;5058644;28;47487;-89
2021/09/24 06:16:51;;;;;;;;;18.25;14.25;;;;;16.41;70.96;100770.97;5061246;28;45095;-89
2021/09/24 06:19:16;;;;;;;;;13.25;11.75;;;;;16.29;70.79;100754.00;5061487;28;45123;-88
2021/09/24 06:21:41;;;;;;;;;14.00;12.50;;;;;16.43;71.12;100771.69;5060767;28;45329;-89
2021/09/24 06:24:08;;;;;;;;;19.00;14.25;;;;;16.48;71.33;100757.94;5060711;28;47281;-88
2021/09/24 06:26:33;;;;;;;;;14.00;12.75;;;;;16.49;70.86;100756.94;5061403;28;45792;-87
2021/09/24 06:28:59;;;;;;;;;15.75;14.25;;;;;16.53;70.55;100756.63;5078251;28;45290;-88
2021/09/24 06:31:24;;;;;;;;;16.25;16.25;;;;;16.50;70.93;100746.13;5061712;28;45230;-88
2021/09/24 06:33:50;;;;;;;;;18.25;15.00;;;;;16.69;70.68;100771.53;5078482;28;45857;-88
2021/09/24 06:36:18;;;;;;;;;18.25;16.25;;;;;16.78;70.86;100770.81;5050164;28;45396;-90
2021/09/24 06:38:45;;;;;;;;;15.75;15.00;;;;;16.72;70.59;100756.03;5076416;28;45304;-88
2021/09/24 06:41:10;;;;;;;;;18.75;16.50;;;;;16.81;70.34;100764.34;5065074;28;45124;-85
2021/09/24 06:43:35;;;;;;;;;19.25;15.75;;;;;16.81;70.08;100757.13;5077393;28;45508;-87
2021/09/24 06:46:01;;;;;;;;;12.00;11.50;;;;;16.87;69.97;100755.81;5051346;28;45336;-86
2021/09/24 06:48:26;;;;;;;;;17.50;15.00;;;;;17.04;69.82;100770.63;5059285;28;45037;-86
2021/09/24 06:50:51;;;;;;;;;17.00;13.50;;;;;17.13;70.21;100769.03;5043433;28;45442;-85
2021/09/24 06:53:16;;;;;;;;;13.25;12.75;;;;;17.15;69.67;100767.94;5038989;28;46201;-85
2021/09/24 06:55:42;;;;;;;;;16.50;15.00;;;;;17.20;69.35;100762.19;5048734;28;45187;-88
2021/09/24 06:58:07;;;;;;;;;12.25;11.25;;;;;17.31;69.03;100772.09;5057929;28;45234;-84
2021/09/24 07:00:32;;;;;;;;;15.75;15.25;;;;;17.31;69.25;100761.34;5062612;28;45204;-90
2021/09/24 07:02:58;;;;;;;;;15.00;15.00;;;;;17.29;68.74;100749.84;5047310;28;47394;-92
2021/09/24 07:05:23;;;;;;;;;19.25;17.00;;;;;17.46;68.58;100772.66;5076284;28;45104;-92
2021/09/24 07:07:49;;;;;;;;;17.75;17.75;;;;;17.50;69.04;100771.44;5084225;28;45209;-85
2021/09/24 07:10:14;;;;;;;;;12.75;12.75;;;;;17.60;68.67;100770.59;5054402;28;45218;-94
2021/09/24 07:12:41;;;;;;;;;21.50;18.00;;;;;17.74;68.34;100769.47;5062886;28;45267;-92
2021/09/24 07:15:07;;;;;;;;;17.00;14.25;;;;;17.89;67.99;100774.53;5062485;28;45522;-92
2021/09/24 07:17:33;;;;;;;;;16.25;14.25;;;;;18.05;67.61;100771.47;5063383;28;45182;-92
2021/09/24 07:19:59;;;;;;;;;13.75;13.50;;;;;18.18;67.16;100764.06;5064588;28;45229;-92
2021/09/24 07:22:25;;;;;;;;;14.00;12.25;;;;;18.34;66.85;100768.16;5064139;28;45473;-93
2021/09/24 07:24:50;;;;;;;;;12.25;8.00;;;;;18.40;66.62;100768.50;5067113;28;45181;-93
2021/09/24 07:27:16;;;;;;;;;10.50;9.25;;;;;18.51;66.43;100761.31;5062059;28;45172;-92
2021/09/24 07:29:42;;;;;;;;;11.50;8.50;;;;;18.64;66.06;100767.38;5061003;28;45255;-91
2021/09/24 07:32:07;;;;;;;;;10.50;10.50;;;;;18.76;65.75;100762.75;5049409;28;46945;-93
2021/09/24 07:34:32;;;;;;;;;9.00;9.00;;;;;18.95;64.98;100764.72;5060041;28;45306;-92
2021/09/24 07:36:58;;;;;;;;;11.00;10.00;;;;;19.02;65.05;100767.75;5060679;28;45197;-93
2021/09/24 07:39:23;;;;;;;;;10.75;9.75;;;;;18.95;64.43;100751.25;5078321;28;45247;-94
2021/09/24 07:41:48;;;;;;;;;13.50;11.00;;;;;18.95;64.51;100759.34;5061941;28;45869;-92
2021/09/24 07:44:14;;;;;;;;;15.50;10.75;;;;;18.90;64.85;100759.75;5060596;28;45298;-91
2021/09/24 07:46:40;;;;;;;;;11.25;9.25;;;;;18.81;64.67;100755.13;5074242;28;45219;-91
2021/09/24 07:49:06;;;;;;;;;12.25;9.50;;;;;18.83;65.19;100757.72;5081072;28;45241;-92
2021/09/24 07:51:32;;;;;;;;;12.75;8.00;;;;;18.87;64.76;100753.75;5079269;28;47847;-92
2021/09/24 07:53:57;;;;;;;;;11.25;9.00;;;;;18.84;64.94;100759.41;5060552;28;45604;-91
2021/09/24 07:56:24;;;;;;;;;9.25;9.25;;;;;18.86;64.68;100762.81;5060714;28;45112;-92
2021/09/24 07:58:50;;;;;;;;;10.75;8.75;;;;;18.88;64.72;100763.56;5062390;28;44702;-92
2021/09/24 08:01:15;;;;;;;;;8.75;8.75;;;;;19.03;64.56;100764.06;5059872;28;47089;-91
2021/09/24 08:03:41;;;;;;;;;8.75;8.75;;;;;19.28;64.38;100762.75;5080994;28;45214;-92
2021/09/24 08:06:06;;;;;;;;;7.25;7.00;;;;;19.58;63.38;100758.28;5081174;28;45714;-92
2021/09/24 08:08:32;;;;;;;;;9.75;7.00;;;;;19.98;62.95;100769.03;5070080;28;45140;-92
2021/09/24 08:10:57;;;;;;;;;8.25;6.50;;;;;20.34;62.20;100772.00;5063124;28;47021;-93
2021/09/24 08:13:24;;;;;;;;;8.75;8.00;;;;;20.58;60.81;100769.84;5063109;28;45322;-93
2021/09/24 08:15:50;;;;;;;;;9.50;6.50;;;;;20.56;59.90;100779.97;5076895;28;45338;-93
2021/09/24 08:18:16;;;;;;;;;8.25;7.50;;;;;20.34;60.13;100776.56;5081118;28;44696;-93
2021/09/24 08:20:44;;;;;;;;;12.00;10.00;;;;;20.03;60.42;100779.41;5079123;28;48535;-94
2021/09/24 08:23:10;;;;;;;;;10.00;8.00;;;;;19.79;61.18;100794.13;5079892;28;45237;-93
2021/09/24 08:25:35;;;;;;;;;8.00;8.00;;;;;19.48;61.01;100785.22;5072413;28;45148;-93
2021/09/24 08:28:01;;;;;;;;;6.25;6.25;;;;;19.38;61.21;100785.22;5062696;28;45372;-92
2021/09/24 08:30:28;;;;;;;;;9.75;7.00;;;;;19.37;61.87;100791.59;5080165;28;47357;-92
2021/09/24 08:32:54;;;;;;;;;7.50;6.00;;;;;19.41;62.19;100782.25;5082985;28;45077;-93
2021/09/24 08:35:21;;;;;;;;;11.25;8.75;;;;;19.43;61.83;100785.63;5049788;28;45272;-93
2021/09/24 08:37:49;;;;;;;;;11.75;9.25;;;;;19.50;61.61;100783.25;5058438;28;45437;-92
2021/09/24 08:40:15;;;;;;;;;7.75;7.75;;;;;19.74;61.43;100784.72;5058417;28;47549;-92
2021/09/24 08:42:41;;;;;;;;;9.50;7.50;;;;;19.93;60.67;100792.03;5062248;28;45355;-93
2021/09/24 08:45:16;;;;;;;;;10.00;8.00;;;;;20.14;59.87;100787.38;5064793;28;45270;-93
2021/09/24 08:47:42;;;;;;;;;8.00;8.00;;;;;20.37;59.18;100778.16;5059819;28;45408;-92
2021/09/24 08:50:09;;;;;;;;;9.25;8.25;;;;;20.61;59.96;100785.78;5061045;28;47251;-92
2021/09/24 08:52:36;;;;;;;;;6.50;6.50;;;;;20.86;58.83;100787.03;5044211;28;45210;-92
2021/09/24 08:55:04;;;;;;;;;10.25;9.50;;;;;20.86;58.23;100790.59;5045793;28;45263;-94
2021/09/24 08:57:29;;;;;;;;;7.00;6.00;;;;;20.66;58.58;100784.34;5060780;28;45406;-92
2021/09/24 08:59:54;;;;;;;;;6.25;6.00;;;;;20.53;58.71;100791.91;5060242;28;47868;-93
2021/09/24 09:02:20;;;;;;;;;5.50;5.00;;;;;20.41;58.40;100788.50;5059661;28;45078;-91
2021/09/24 09:04:48;;;;;;;;;3.50;3.50;;;;;20.35;58.30;100789.94;5058909;28;46026;-92
2021/09/24 09:07:17;;;;;;;;;6.00;5.00;;;;;20.41;58.14;100791.22;5059178;28;45265;-92
2021/09/24 09:09:45;;;;;;;;;8.50;8.00;;;;;20.46;58.95;100793.47;5056500;28;46987;-91
2021/09/24 09:12:15;;;;;;;;;8.25;7.00;;;;;20.45;58.86;100795.31;5047008;28;45379;-90
2021/09/24 09:14:41;;;;;;;;;9.25;7.50;;;;;20.39;59.05;100793.19;5073865;28;45281;-90
2021/09/24 09:17:31;;;;;;;;;6.25;6.00;;;;;20.24;59.22;100792.78;5057592;28;45395;-90
2021/09/24 09:20:15;;;;;;;;;5.75;5.00;;;;;20.21;59.12;100803.84;5058177;28;48154;-93
2021/09/24 09:22:44;;;;;;;;;8.25;7.75;;;;;20.18;59.20;100801.44;5023574;28;45550;-91
2021/09/24 09:25:32;;;;;;;;;8.00;8.00;;;;;20.33;58.81;100801.88;5042013;28;45247;-92
2021/09/24 09:28:07;;;;;;;;;9.50;6.25;;;;;20.27;58.88;100805.13;5058617;28;45275;-90
2021/09/24 09:30:34;;;;;;;;;8.50;7.00;;;;;20.22;58.89;100804.69;5079504;28;45206;-91
2021/09/24 09:33:03;;;;;;;;;7.50;7.50;;;;;20.14;59.82;100808.13;5095969;28;45206;-89
2021/09/24 09:35:29;;;;;;;;;8.25;6.25;;;;;19.98;59.59;100793.31;5082574;28;45144;-90
2021/09/24 09:37:57;;;;;;;;;8.00;6.75;;;;;20.03;59.54;100802.84;5091612;28;44579;-90
2021/09/24 09:40:23;;;;;;;;;17.75;15.75;;;;;19.96;59.14;100792.59;5087854;28;45272;-90
2021/09/24 09:42:50;;;;;;;;;6.00;6.00;;;;;20.12;58.85;100791.19;5068599;28;45147;-90
2021/09/24 09:45:18;;;;;;;;;8.25;4.75;;;;;20.32;58.89;100789.34;5068454;28;45128;-90
2021/09/24 09:47:47;;;;;;;;;6.25;5.75;;;;;20.82;58.45;100789.19;5057344;28;44634;-91
2021/09/24 09:50:26;;;;;;;;;6.25;5.25;;;;;20.99;56.06;100781.28;5061566;28;46369;-90
2021/09/24 09:52:58;;;;;;;;;4.00;4.00;;;;;20.96;57.13;100795.13;5076109;28;45517;-90
2021/09/24 09:55:27;;;;;;;;;4.00;4.00;;;;;20.90;57.14;100788.44;5074536;28;45245;-91
2021/09/24 09:57:55;;;;;;;;;7.00;7.00;;;;;20.87;57.30;100786.03;5061929;28;45461;-90
2021/09/24 10:00:21;;;;;;;;;4.00;4.00;;;;;20.88;56.80;100790.44;5069544;28;45470;-89
2021/09/24 10:02:50;;;;;;;;;4.75;3.75;;;;;21.00;57.01;100783.00;5075600;28;45167;-91
2021/09/24 10:05:41;;;;;;;;;6.00;4.50;;;;;21.86;56.57;100784.59;5063630;28;45200;-90
2021/09/24 10:08:32;;;;;;;;;6.00;4.50;;;;;22.46;54.54;100784.00;5053117;28;45213;-90
2021/09/24 10:10:58;;;;;;;;;5.75;5.25;;;;;22.53;54.38;100779.66;5071302;28;45393;-90
2021/09/24 10:13:28;;;;;;;;;6.00;6.00;;;;;22.84;53.72;100776.47;5061393;28;45241;-91
2021/09/24 10:15:54;;;;;;;;;9.75;7.25;;;;;23.45;51.79;100784.63;5067124;28;45266;-91
2021/09/24 10:18:19;;;;;;;;;8.75;7.00;;;;;24.02;50.81;100785.84;5081205;28;45154;-90
2021/09/24 10:20:47;;;;;;;;;10.50;7.75;;;;;24.18;48.98;100785.00;5080807;28;46035;-90
2021/09/24 10:23:12;;;;;;;;;8.00;7.00;;;;;24.12;49.81;100789.22;5080474;28;45392;-92
2021/09/24 10:25:40;;;;;;;;;8.00;7.25;;;;;23.85;48.77;100790.34;5067220;28;45238;-93
2021/09/24 10:28:09;;;;;;;;;9.25;9.25;;;;;23.42;49.49;100787.66;5073195;28;45318;-89
2021/09/24 10:30:35;;;;;;;;;9.00;7.50;;;;;23.04;50.97;100790.66;5079946;28;46162;-89
2021/09/24 10:33:04;;;;;;;;;18.75;14.50;;;;;22.78;50.85;100781.69;5077320;28;45615;-89
2021/09/24 10:35:52;;;;;;;;;25.25;22.75;;;;;22.69;52.48;100788.94;5059929;28;45326;-91
2021/09/24 10:38:20;;;;;;;;;7.50;7.50;;;;;22.69;50.87;100784.34;5072824;28;45163;-85
2021/09/24 10:41:02;;;;;;;;;10.00;7.75;;;;;22.68;51.78;100787.22;5076769;28;46139;-83
2021/09/24 10:43:49;;;;;;;;;11.00;9.00;;;;;22.85;52.25;100782.75;5044555;28;45286;-83
2021/09/24 10:46:24;;;;;;;;;8.50;8.00;;;;;22.86;51.07;100779.03;5068796;28;45195;-84
2021/09/24 10:49:12;;;;;;;;;9.25;8.00;;;;;22.73;51.55;100774.03;5058786;28;45255;-83
2021/09/24 10:51:44;;;;;;;;;7.50;7.50;;;;;22.66;52.01;100768.41;5068964;28;46109;-83
2021/09/24 10:54:21;;;;;;;;;8.75;6.75;;;;;22.58;52.27;100771.91;5063936;28;45151;-83
2021/09/24 10:57:02;;;;;;;;;7.00;6.00;;;;;22.56;51.88;100764.94;5058125;28;45309;-84
2021/09/24 10:59:33;;;;;;;;;8.00;8.00;;;;;22.51;52.50;100767.28;5062012;28;45273;-84
2021/09/24 11:02:00;;;;;;;;;10.00;8.00;;;;;22.50;52.82;100762.84;5057617;28;45206;-85
2021/09/24 11:04:45;;;;;;;;;9.25;7.00;;;;;22.51;52.50;100753.72;5075348;28;45195;-83
2021/09/24 11:07:30;;;;;;;;;7.00;7.00;;;;;22.50;52.25;100760.16;5072019;28;45179;-84
2021/09/24 11:09:56;;;;;;;;;8.25;6.75;;;;;22.43;52.83;100757.22;5037938;28;45208;-86
2021/09/24 11:12:21;;;;;;;;;6.00;5.50;;;;;22.51;52.84;100749.16;5037673;28;45183;-84